createdAt,value
2023-05-17T00:02:01.047Z,13.82
2023-05-17T00:04:28.334Z,17.13
2023-05-17T00:06:55.369Z,17.15
2023-05-17T00:09:22.213Z,13.32
2023-05-17T00:11:49.048Z,13.95
2023-05-17T00:14:16.283Z,11.80
2023-05-17T00:16:43.191Z,12.20
2023-05-17T00:19:10.240Z,11.38
2023-05-17T00:21:38.039Z,17.42
2023-05-17T00:24:05.469Z,9.98
2023-05-17T00:26:33.700Z,11.77
2023-05-17T00:29:00.860Z,11.70
2023-05-17T00:31:27.860Z,14.32
2023-05-17T00:33:54.726Z,12.18
2023-05-17T00:36:21.683Z,14.85
2023-05-17T00:38:48.483Z,16.23
2023-05-17T00:41:15.531Z,15.82
2023-05-17T00:43:42.313Z,13.00
2023-05-17T00:46:09.898Z,10.73
2023-05-17T00:48:38.070Z,13.68
2023-05-17T00:51:06.120Z,13.75
2023-05-17T00:53:33.683Z,12.38
2023-05-17T00:56:02.157Z,11.32
2023-05-17T00:58:30.678Z,12.95
2023-05-17T01:00:59.694Z,9.60
2023-05-17T01:03:27.702Z,10.55
2023-05-17T01:05:55.669Z,13.65
2023-05-17T01:08:22.569Z,10.98
2023-05-17T01:11:35.329Z,14.90
2023-05-17T01:14:24.063Z,9.75
2023-05-17T01:17:07.127Z,13.15
2023-05-17T01:20:07.449Z,11.60
2023-05-17T01:23:21.281Z,11.52
2023-05-17T01:26:10.693Z,13.15
2023-05-17T01:28:46.777Z,13.30
2023-05-17T01:31:14.773Z,13.95
2023-05-17T01:33:41.862Z,13.90
2023-05-17T01:36:09.267Z,15.93
2023-05-17T01:38:36.150Z,12.52
2023-05-17T01:41:21.822Z,14.60
2023-05-17T01:44:18.327Z,15.63
2023-05-17T01:46:45.410Z,13.93
2023-05-17T01:49:28.743Z,15.85
2023-05-17T01:52:31.986Z,11.63
2023-05-17T01:55:14.518Z,16.00
2023-05-17T01:57:45.129Z,14.48
2023-05-17T02:00:14.511Z,14.25
2023-05-17T02:02:41.692Z,17.02
2023-05-17T02:05:09.096Z,11.70
2023-05-17T02:07:40.030Z,11.35
2023-05-17T02:10:07.913Z,12.88
2023-05-17T02:12:36.428Z,12.07
2023-05-17T02:15:04.048Z,11.00
2023-05-17T02:17:31.147Z,12.32
2023-05-17T02:19:58.109Z,10.32
2023-05-17T02:22:24.958Z,16.48
2023-05-17T02:24:51.961Z,12.35
2023-05-17T02:27:18.814Z,12.90
2023-05-17T02:29:45.663Z,11.18
2023-05-17T02:32:12.488Z,14.70
2023-05-17T02:34:39.392Z,11.50
2023-05-17T02:37:06.447Z,14.57
2023-05-17T02:39:33.867Z,12.20
2023-05-17T02:42:00.789Z,11.43
2023-05-17T02:44:27.645Z,15.75
2023-05-17T02:46:54.501Z,12.20
2023-05-17T02:49:21.439Z,14.30
2023-05-17T02:51:48.360Z,12.88
2023-05-17T02:54:15.677Z,12.27
2023-05-17T02:56:42.526Z,11.70
2023-05-17T02:59:09.470Z,16.25
2023-05-17T03:01:37.950Z,10.32
2023-05-17T03:04:05.519Z,13.93
2023-05-17T03:06:32.509Z,11.75
2023-05-17T03:08:59.338Z,11.77
2023-05-17T03:11:26.663Z,11.80
2023-05-17T03:13:59.054Z,10.05
2023-05-17T03:16:27.715Z,13.15
2023-05-17T03:18:54.924Z,10.23
2023-05-17T03:21:22.456Z,12.05
2023-05-17T03:23:50.471Z,13.50
2023-05-17T03:26:19.701Z,10.18
2023-05-17T03:28:50.388Z,12.27
2023-05-17T03:31:18.969Z,12.07
2023-05-17T03:33:46.110Z,10.27
2023-05-17T03:36:13.482Z,13.23
2023-05-17T03:38:40.573Z,14.77
2023-05-17T03:41:07.560Z,11.05
2023-05-17T03:43:34.498Z,11.25
2023-05-17T03:46:02.083Z,10.73
2023-05-17T03:48:29.752Z,10.15
2023-05-17T03:50:56.741Z,16.38
2023-05-17T03:53:23.664Z,12.27
2023-05-17T03:55:50.543Z,10.63
2023-05-17T03:58:18.336Z,9.15
2023-05-17T04:00:45.372Z,14.10
2023-05-17T04:03:16.953Z,13.10
2023-05-17T04:05:46.605Z,10.40
2023-05-17T04:08:13.920Z,12.32
2023-05-17T04:10:42.132Z,13.93
2023-05-17T04:13:09.697Z,8.00
2023-05-17T04:15:37.925Z,14.77
2023-05-17T04:18:06.203Z,9.48
2023-05-17T04:20:33.148Z,13.05
2023-05-17T04:23:00.242Z,8.95
2023-05-17T04:25:29.764Z,10.93
2023-05-17T04:27:56.977Z,10.15
2023-05-17T04:30:24.915Z,8.38
2023-05-17T04:32:51.909Z,10.55
2023-05-17T04:35:19.180Z,14.48
2023-05-17T04:37:48.873Z,8.10
2023-05-17T04:40:21.257Z,10.15
2023-05-17T04:42:48.901Z,10.43
2023-05-17T04:45:17.649Z,11.85
2023-05-17T04:47:44.615Z,11.73
2023-05-17T04:50:12.483Z,11.75
2023-05-17T04:52:39.397Z,12.20
2023-05-17T04:55:06.831Z,9.73
2023-05-17T04:57:33.620Z,12.02
2023-05-17T05:00:10.167Z,9.00
2023-05-17T05:02:39.419Z,12.23
2023-05-17T05:05:07.496Z,10.07
2023-05-17T05:07:35.476Z,9.35
2023-05-17T05:10:03.536Z,9.60
2023-05-17T05:12:30.450Z,11.75
2023-05-17T05:14:59.046Z,11.68
2023-05-17T05:17:27.359Z,12.00
2023-05-17T05:19:54.390Z,17.23
2023-05-17T05:22:21.521Z,15.77
2023-05-17T05:24:48.485Z,14.13
2023-05-17T05:27:16.078Z,13.77
2023-05-17T05:29:43.509Z,14.15
2023-05-17T05:32:11.569Z,11.63
2023-05-17T05:34:43.995Z,14.32
2023-05-17T05:37:10.998Z,14.23
2023-05-17T05:39:37.976Z,15.32
2023-05-17T05:42:05.491Z,17.25
2023-05-17T05:44:32.329Z,14.07
2023-05-17T05:47:00.179Z,14.13
2023-05-17T05:49:27.164Z,14.80
2023-05-17T05:51:54.326Z,9.13
2023-05-17T05:54:21.999Z,15.13
2023-05-17T05:56:51.226Z,13.52
2023-05-17T05:59:19.836Z,13.73
2023-05-17T06:01:46.774Z,13.60
2023-05-17T06:04:13.687Z,12.52
2023-05-17T06:06:41.344Z,10.73
2023-05-17T06:09:12.248Z,11.25
2023-05-17T06:11:39.709Z,11.93
2023-05-17T06:14:06.801Z,11.70
2023-05-17T06:16:34.595Z,14.05
2023-05-17T06:19:01.520Z,16.67
2023-05-17T06:21:28.653Z,14.45
2023-05-17T06:23:55.508Z,11.48
2023-05-17T06:26:22.515Z,12.95
2023-05-17T06:28:49.529Z,10.07
2023-05-17T06:31:16.918Z,15.00
2023-05-17T06:33:44.322Z,13.93
2023-05-17T06:36:11.363Z,8.48
2023-05-17T06:38:38.223Z,9.27
2023-05-17T06:41:05.466Z,9.45
2023-05-17T06:43:32.316Z,10.25
2023-05-17T06:45:59.174Z,11.55
2023-05-17T06:48:26.769Z,9.40
2023-05-17T06:50:53.858Z,11.15
2023-05-17T06:53:21.151Z,13.73
2023-05-17T06:55:48.320Z,9.68
2023-05-17T06:58:15.162Z,12.88
2023-05-17T07:00:42.020Z,10.55
2023-05-17T07:03:09.005Z,7.00
2023-05-17T07:05:36.385Z,8.32
2023-05-17T07:08:03.513Z,8.32
2023-05-17T07:10:30.341Z,6.05
2023-05-17T07:12:57.197Z,7.25
2023-05-17T07:15:24.033Z,4.65
2023-05-17T07:17:51.038Z,5.50
2023-05-17T07:20:17.931Z,5.95
2023-05-17T07:22:44.872Z,7.07
2023-05-17T07:25:11.855Z,7.93
2023-05-17T07:27:38.812Z,5.05
2023-05-17T07:30:07.238Z,6.93
2023-05-17T07:32:34.179Z,5.75
2023-05-17T07:35:02.253Z,6.97
2023-05-17T07:37:29.137Z,9.60
2023-05-17T07:39:56.233Z,6.75
2023-05-17T07:42:23.279Z,6.80
2023-05-17T07:44:50.223Z,5.75
2023-05-17T07:47:18.176Z,10.98
2023-05-17T07:49:45.176Z,8.50
2023-05-17T07:52:12.022Z,5.85
2023-05-17T07:54:39.285Z,13.20
2023-05-17T07:57:06.268Z,6.22
2023-05-17T07:59:33.363Z,5.55
2023-05-17T08:02:00.430Z,6.30
2023-05-17T08:04:27.320Z,5.80
2023-05-17T08:06:55.321Z,7.75
2023-05-17T08:09:22.182Z,5.25
2023-05-17T08:11:51.679Z,4.85
2023-05-17T08:14:21.280Z,4.65
2023-05-17T08:16:48.235Z,4.07
2023-05-17T08:19:16.691Z,7.03
2023-05-17T08:21:43.937Z,4.85
2023-05-17T08:24:11.558Z,5.47
2023-05-17T08:26:38.901Z,5.57
2023-05-17T08:29:05.910Z,4.25
2023-05-17T08:31:33.105Z,6.63
2023-05-17T08:34:02.056Z,5.80
2023-05-17T08:36:29.040Z,5.45
2023-05-17T08:38:56.072Z,5.13
2023-05-17T08:41:23.117Z,7.10
2023-05-17T08:43:51.249Z,5.45
2023-05-17T08:46:22.561Z,7.68
2023-05-17T08:48:59.837Z,11.73
2023-05-17T08:51:27.706Z,7.00
2023-05-17T08:53:55.879Z,4.70
2023-05-17T08:56:25.731Z,4.55
2023-05-17T08:58:57.865Z,5.97
2023-05-17T09:01:27.580Z,7.53
2023-05-17T09:03:56.493Z,6.22
2023-05-17T09:06:24.389Z,3.80
2023-05-17T09:08:53.341Z,6.20
2023-05-17T09:11:34.674Z,6.18
2023-05-17T09:14:04.821Z,5.93
2023-05-17T09:16:35.071Z,6.88
2023-05-17T09:19:05.359Z,7.07
2023-05-17T09:21:34.808Z,10.35
2023-05-17T09:26:46.010Z,4.65
2023-05-17T09:29:17.419Z,4.10
2023-05-17T09:31:45.132Z,4.32
2023-05-17T09:34:12.652Z,7.10
2023-05-17T09:36:43.896Z,6.93
2023-05-17T09:39:13.450Z,3.15
2023-05-17T09:41:48.693Z,5.53
2023-05-17T09:44:16.428Z,8.77
2023-05-17T09:46:48.677Z,4.05
2023-05-17T09:49:17.674Z,7.50
2023-05-17T09:51:49.848Z,5.40
2023-05-17T09:54:17.909Z,3.78
2023-05-17T09:56:45.125Z,8.68
2023-05-17T09:59:17.057Z,4.47
2023-05-17T10:01:45.887Z,7.28
2023-05-17T10:04:14.115Z,3.72
2023-05-17T10:06:49.836Z,3.00
2023-05-17T10:09:22.300Z,4.28
2023-05-17T10:11:52.737Z,5.28
2023-05-17T10:14:28.538Z,4.50
2023-05-17T10:16:57.055Z,3.47
2023-05-17T10:19:25.832Z,5.25
2023-05-17T10:21:54.014Z,2.95
2023-05-17T10:24:22.770Z,6.30
2023-05-17T10:26:51.321Z,4.45
2023-05-17T10:29:21.135Z,6.15
2023-05-17T10:31:51.230Z,5.22
2023-05-17T10:34:19.991Z,4.35
2023-05-17T10:36:49.903Z,6.63
2023-05-17T10:39:16.964Z,7.70
2023-05-17T10:41:47.966Z,7.45
2023-05-17T10:44:17.472Z,3.15
2023-05-17T10:46:59.565Z,5.07
2023-05-17T10:49:31.567Z,6.93
2023-05-17T10:52:19.080Z,4.50
2023-05-17T10:54:50.371Z,6.32
2023-05-17T10:57:46.808Z,5.35
2023-05-17T11:00:21.864Z,3.45
2023-05-17T11:03:22.495Z,3.95
2023-05-17T11:06:25.686Z,4.53
2023-05-17T11:09:18.631Z,3.67
2023-05-17T11:12:06.203Z,2.50
2023-05-17T11:14:45.540Z,5.22
2023-05-17T11:17:17.835Z,6.53
2023-05-17T11:20:05.877Z,5.78
2023-05-17T11:22:43.294Z,3.17
2023-05-17T11:25:13.616Z,5.22
2023-05-17T11:27:50.433Z,5.80
2023-05-17T11:30:43.447Z,5.00
2023-05-17T11:33:20.531Z,6.38
2023-05-17T11:35:55.712Z,5.45
2023-05-17T11:38:30.176Z,5.45
2023-05-17T11:40:57.824Z,7.32
2023-05-17T11:43:31.271Z,6.22
2023-05-17T11:46:02.412Z,4.90
2023-05-17T11:48:31.455Z,5.97
2023-05-17T11:51:00.738Z,9.77
2023-05-17T11:53:31.764Z,4.18
2023-05-17T11:56:04.633Z,7.32
2023-05-17T11:58:32.528Z,5.43
2023-05-17T12:00:59.447Z,6.70
2023-05-17T12:03:31.818Z,4.05
2023-05-17T12:06:12.970Z,6.13
2023-05-17T12:08:45.175Z,11.15
2023-05-17T12:11:14.945Z,6.50
2023-05-17T12:13:42.648Z,5.45
2023-05-17T12:16:17.890Z,7.85
2023-05-17T12:18:50.300Z,3.67
2023-05-17T12:21:19.059Z,7.80
2023-05-17T12:23:51.474Z,10.38
2023-05-17T12:26:22.699Z,6.20
2023-05-17T12:29:00.852Z,8.15
2023-05-17T12:31:50.896Z,6.80
2023-05-17T12:34:19.163Z,7.25
2023-05-17T12:36:46.801Z,7.65
2023-05-17T12:39:15.572Z,7.57
2023-05-17T12:41:43.659Z,6.70
2023-05-17T12:44:15.150Z,8.52
2023-05-17T12:46:43.934Z,7.53
2023-05-17T12:49:12.229Z,6.72
2023-05-17T12:51:46.712Z,7.45
2023-05-17T12:54:36.757Z,6.57
2023-05-17T12:57:12.982Z,7.20
2023-05-17T12:59:52.870Z,5.63
2023-05-17T13:02:20.805Z,5.35
2023-05-17T13:04:47.978Z,9.80
2023-05-17T13:07:26.603Z,7.05
2023-05-17T13:09:53.734Z,12.55
2023-05-17T13:12:23.859Z,8.23
2023-05-17T13:14:53.298Z,8.07
2023-05-17T13:17:34.187Z,7.68
2023-05-17T13:20:01.649Z,9.07
2023-05-17T13:22:28.645Z,8.25
2023-05-17T13:24:55.862Z,8.57
2023-05-17T13:27:22.848Z,8.20
2023-05-17T13:29:49.725Z,7.25
2023-05-17T13:32:16.642Z,4.35
2023-05-17T13:34:43.446Z,6.82
2023-05-17T13:37:12.324Z,8.13
2023-05-17T13:39:40.891Z,6.25
2023-05-17T13:42:07.850Z,6.13
2023-05-17T13:44:34.740Z,6.63
2023-05-17T13:47:01.892Z,6.35
2023-05-17T13:49:28.828Z,7.55
2023-05-17T13:51:56.561Z,6.18
2023-05-17T13:54:23.562Z,7.40
2023-05-17T13:56:50.716Z,9.63
2023-05-17T13:59:17.650Z,6.68
2023-05-17T14:01:45.086Z,9.32
2023-05-17T14:04:12.188Z,9.48
2023-05-17T14:06:39.636Z,6.85
2023-05-17T14:09:06.682Z,7.13
2023-05-17T14:11:34.486Z,5.72
2023-05-17T14:14:01.498Z,8.23
2023-05-17T14:16:28.377Z,5.28
2023-05-17T14:18:55.662Z,13.68
2023-05-17T14:21:22.745Z,8.90
2023-05-17T14:23:49.580Z,9.40
2023-05-17T14:26:16.523Z,7.72
2023-05-17T14:28:43.376Z,7.65
2023-05-17T14:31:10.806Z,5.93
2023-05-17T14:33:37.926Z,6.13
2023-05-17T14:36:05.187Z,6.07
2023-05-17T14:38:32.121Z,7.40
2023-05-17T14:41:02.252Z,8.40
2023-05-17T14:43:29.285Z,9.00
2023-05-17T14:45:56.230Z,6.68
2023-05-17T14:48:23.357Z,6.93
2023-05-17T14:50:51.316Z,8.70
2023-05-17T14:53:18.180Z,6.63
2023-05-17T14:55:45.004Z,6.75
2023-05-17T14:58:14.813Z,7.32
2023-05-17T15:00:47.206Z,9.82
2023-05-17T15:03:14.999Z,10.80
2023-05-17T15:05:43.366Z,4.50
2023-05-17T15:08:11.068Z,5.05
2023-05-17T15:10:38.546Z,6.22
2023-05-17T15:13:05.471Z,10.57
2023-05-17T15:15:36.675Z,4.93
2023-05-17T15:18:03.816Z,8.10
2023-05-17T15:20:30.771Z,5.45
2023-05-17T15:22:57.634Z,12.73
2023-05-17T15:25:24.429Z,8.25
2023-05-17T15:27:51.320Z,8.02
2023-05-17T15:30:18.320Z,5.30
2023-05-17T15:32:45.979Z,9.73
2023-05-17T15:35:12.958Z,7.43
2023-05-17T15:37:39.943Z,6.28
2023-05-17T15:40:09.734Z,6.07
2023-05-17T15:42:37.167Z,7.10
2023-05-17T15:45:04.756Z,10.40
2023-05-17T15:47:42.332Z,7.30
2023-05-17T15:50:11.225Z,5.28
2023-05-17T15:52:39.373Z,6.30
2023-05-17T15:55:06.547Z,8.15
2023-05-17T15:57:33.729Z,7.45
2023-05-17T16:00:00.738Z,8.68
2023-05-17T16:02:27.666Z,7.35
2023-05-17T16:04:55.210Z,11.70
2023-05-17T16:07:22.668Z,8.07
2023-05-17T16:09:49.455Z,8.13
2023-05-17T16:12:16.296Z,8.27
2023-05-17T16:14:44.792Z,8.20
2023-05-17T16:17:11.695Z,8.23
2023-05-17T16:19:38.647Z,8.05
2023-05-17T16:22:05.583Z,8.05
2023-05-17T16:24:32.565Z,8.55
2023-05-17T16:26:59.447Z,7.03
2023-05-17T16:29:26.212Z,8.95
2023-05-17T16:31:53.479Z,10.32
2023-05-17T16:34:20.489Z,6.93
2023-05-17T16:36:48.259Z,7.40
2023-05-17T16:39:15.243Z,8.00
2023-05-17T16:41:42.164Z,9.05
2023-05-17T16:44:09.107Z,7.47
2023-05-17T16:46:37.890Z,16.20
2023-05-17T16:49:04.957Z,11.10
2023-05-17T16:51:31.856Z,6.82
2023-05-17T16:53:58.643Z,8.00
2023-05-17T16:56:25.552Z,6.63
2023-05-17T16:58:52.442Z,7.05
2023-05-17T17:01:19.409Z,8.43
2023-05-17T17:03:46.336Z,7.80
2023-05-17T17:06:13.311Z,7.88
2023-05-17T17:08:41.672Z,5.13
2023-05-17T17:11:08.632Z,8.07
2023-05-17T17:13:35.752Z,6.25
2023-05-17T17:16:02.670Z,8.52
2023-05-17T17:18:29.644Z,9.98
2023-05-17T17:20:57.283Z,8.80
2023-05-17T17:23:24.165Z,7.25
2023-05-17T17:25:51.079Z,8.90
2023-05-17T17:28:17.954Z,8.40
2023-05-17T17:30:45.000Z,8.00
2023-05-17T17:33:11.851Z,9.10
2023-05-17T17:35:38.769Z,9.63
2023-05-17T17:38:05.719Z,7.32
2023-05-17T17:40:32.773Z,7.07
2023-05-17T17:42:59.761Z,5.57
2023-05-17T17:45:26.627Z,9.05
2023-05-17T17:47:53.543Z,6.20
2023-05-17T17:50:20.836Z,6.97
2023-05-17T17:52:48.117Z,6.75
2023-05-17T17:55:15.295Z,8.50
2023-05-17T17:57:42.398Z,12.70
2023-05-17T18:00:12.015Z,7.20
2023-05-17T18:02:39.734Z,12.25
2023-05-17T18:05:07.143Z,10.45
2023-05-17T18:07:34.118Z,6.45
2023-05-17T18:10:01.939Z,8.25
2023-05-17T18:12:29.456Z,7.75
2023-05-17T18:14:56.300Z,8.45
2023-05-17T18:17:23.413Z,5.18
2023-05-17T18:19:50.334Z,10.05
2023-05-17T18:22:17.384Z,9.15
2023-05-17T18:24:45.084Z,5.70
2023-05-17T18:27:14.993Z,9.60
2023-05-17T18:29:42.568Z,9.95
2023-05-17T18:32:09.805Z,10.02
2023-05-17T18:34:37.990Z,9.05
2023-05-17T18:37:05.109Z,5.78
2023-05-17T18:39:32.203Z,5.63
2023-05-17T18:41:59.413Z,8.20
2023-05-17T18:44:26.308Z,7.15
2023-05-17T18:46:54.051Z,6.00
2023-05-17T18:49:21.371Z,6.70
2023-05-17T18:51:48.550Z,9.25
2023-05-17T18:54:15.413Z,7.15
2023-05-17T18:56:42.245Z,8.73
2023-05-17T18:59:09.216Z,3.97
2023-05-17T19:01:36.870Z,5.68
2023-05-17T19:04:04.005Z,7.18
2023-05-17T19:06:31.798Z,7.28
2023-05-17T19:08:59.562Z,5.53
2023-05-17T19:11:28.513Z,7.20
2023-05-17T19:13:56.036Z,6.35
2023-05-17T19:16:22.967Z,6.43
2023-05-17T19:18:50.225Z,5.65
2023-05-17T19:21:17.365Z,5.68
2023-05-17T19:23:44.642Z,13.73
2023-05-17T19:26:11.566Z,6.32
2023-05-17T19:28:39.849Z,6.75
2023-05-17T19:31:08.213Z,7.55
2023-05-17T19:33:37.509Z,4.55
2023-05-17T19:36:04.649Z,5.60
2023-05-17T19:38:33.124Z,5.72
2023-05-17T19:41:01.290Z,7.88
2023-05-17T19:43:28.248Z,6.72
2023-05-17T19:45:55.574Z,7.72
2023-05-17T19:48:24.111Z,3.25
2023-05-17T19:50:51.404Z,4.57
2023-05-17T19:53:18.342Z,6.65
2023-05-17T19:55:45.321Z,8.23
2023-05-17T19:58:12.196Z,7.10
2023-05-17T20:00:39.132Z,6.82
2023-05-17T20:03:06.148Z,9.27
2023-05-17T20:05:33.414Z,8.07
2023-05-17T20:08:02.501Z,4.78
2023-05-17T20:10:33.155Z,8.57
2023-05-17T20:13:00.119Z,6.63
2023-05-17T20:15:27.173Z,8.18
2023-05-17T20:17:54.154Z,7.82
2023-05-17T20:20:21.863Z,7.90
2023-05-17T20:22:48.832Z,6.20
2023-05-17T20:25:15.966Z,6.57
2023-05-17T20:27:43.383Z,7.82
2023-05-17T20:30:11.127Z,12.27
2023-05-17T20:32:38.005Z,4.68
2023-05-17T20:35:05.922Z,9.05
2023-05-17T20:37:32.846Z,5.18
2023-05-17T20:40:00.260Z,6.18
2023-05-17T20:42:28.200Z,6.07
2023-05-17T20:44:55.509Z,5.45
2023-05-17T20:47:22.312Z,6.97
2023-05-17T20:49:50.161Z,5.85
2023-05-17T20:52:27.590Z,7.95
2023-05-17T20:55:05.612Z,5.93
2023-05-17T20:57:32.397Z,9.07
2023-05-17T20:59:59.186Z,6.38
2023-05-17T21:02:26.305Z,10.15
2023-05-17T21:04:54.348Z,9.13
2023-05-17T21:07:22.296Z,9.70
2023-05-17T21:09:49.076Z,5.72
2023-05-17T21:12:16.014Z,7.45
2023-05-17T21:14:42.947Z,5.85
2023-05-17T21:17:10.289Z,6.47
2023-05-17T21:19:37.182Z,7.00
2023-05-17T21:22:04.375Z,8.00
2023-05-17T21:24:31.303Z,5.97
2023-05-17T21:26:58.444Z,5.95
2023-05-17T21:29:25.404Z,8.35
2023-05-17T21:31:52.333Z,7.05
2023-05-17T21:34:19.313Z,5.32
2023-05-17T21:36:46.357Z,7.68
2023-05-17T21:39:13.261Z,6.72
2023-05-17T21:41:40.062Z,8.52
2023-05-17T21:44:06.880Z,5.30
2023-05-17T21:46:33.713Z,7.05
2023-05-17T21:49:00.566Z,6.78
2023-05-17T21:51:27.411Z,6.28
2023-05-17T21:53:54.574Z,6.10
2023-05-17T21:56:21.731Z,8.43
2023-05-17T21:58:48.565Z,9.70
2023-05-17T22:01:17.296Z,7.15
2023-05-17T22:03:44.255Z,7.50
2023-05-17T22:06:11.193Z,4.78
2023-05-17T22:08:37.973Z,4.72
2023-05-17T22:11:05.622Z,5.28
2023-05-17T22:13:32.507Z,8.98
2023-05-17T22:15:59.365Z,6.78
2023-05-17T22:18:27.060Z,6.22
2023-05-17T22:20:55.008Z,7.88
2023-05-17T22:23:21.907Z,5.72
2023-05-17T22:25:48.777Z,7.18
2023-05-17T22:28:15.697Z,7.82
2023-05-17T22:30:46.480Z,9.52
2023-05-17T22:33:13.438Z,10.40
2023-05-17T22:35:41.070Z,6.75
2023-05-17T22:38:07.972Z,5.65
2023-05-17T22:40:34.819Z,5.82
2023-05-17T22:43:01.610Z,7.45
2023-05-17T22:45:32.804Z,6.40
2023-05-17T22:48:02.726Z,6.68
2023-05-17T22:50:30.628Z,8.95
2023-05-17T22:52:58.601Z,5.90
2023-05-17T22:55:25.744Z,4.80
2023-05-17T22:57:53.506Z,6.80
2023-05-17T23:00:20.596Z,5.57
2023-05-17T23:02:47.521Z,5.45
2023-05-17T23:05:14.556Z,6.10
2023-05-17T23:07:43.179Z,6.18
2023-05-17T23:10:10.978Z,6.43
2023-05-17T23:12:38.676Z,5.45
2023-05-17T23:15:06.772Z,5.38
2023-05-17T23:17:33.786Z,8.27
2023-05-17T23:20:10.300Z,6.03
2023-05-17T23:22:37.658Z,4.65
2023-05-17T23:25:05.955Z,5.43
2023-05-17T23:27:35.248Z,6.55
2023-05-17T23:30:03.090Z,5.15
2023-05-17T23:32:32.478Z,6.35
2023-05-17T23:35:03.369Z,9.77
2023-05-17T23:37:33.931Z,8.05
2023-05-17T23:40:01.611Z,6.03
2023-05-17T23:42:31.824Z,6.43
2023-05-17T23:45:03.367Z,9.75
2023-05-17T23:47:30.898Z,6.03
2023-05-17T23:49:57.851Z,5.10
2023-05-17T23:52:24.877Z,4.97
2023-05-17T23:54:51.892Z,6.75
2023-05-17T23:57:18.731Z,6.00
2023-05-17T23:59:45.589Z,6.93
